Time;durP1;ratioP1;P1;durP2;ratioP2;P2;SDS_P1;SDS_P2;PMS_P1;PMS_P2;Temp;Humidity;BMP_temperature;BMP_pressure;BME280_temperature;BME280_humidity;BME280_pressure;Samples;Min_cycle;Max_cycle;Signal;HPM_P1;HPM_P2
2022/05/26 00:00:08;;;;;;;;;;;;;;;12.31;100.00;96083.25;10491473;28;2295;-76
2022/05/26 00:05:11;;;;;;;;;;;;;;;12.26;100.00;96077.88;10512157;28;2254;-74
2022/05/26 00:10:15;;;;;;;;;;;;;;;12.31;100.00;96077.06;10514153;28;2248;-75
2022/05/26 00:15:18;;;;;;;;;;;;;;;12.39;100.00;96079.97;10498680;28;2103;-74
2022/05/26 00:20:21;;;;;;;;;;;;;;;12.52;100.00;96081.25;10487164;28;2694;-74
2022/05/26 00:25:25;;;;;;;;;;;;;;;12.47;100.00;96085.88;10502081;28;2330;-75
2022/05/26 00:30:29;;;;;;;;;;;;;;;12.35;100.00;96088.91;10490212;28;2108;-74
2022/05/26 00:35:34;;;;;;;;;;;;;;;12.28;100.00;96086.53;10508350;28;2215;-75
2022/05/26 00:40:38;;;;;;;;;;;;;;;12.18;100.00;96079.28;10489104;28;2200;-75
2022/05/26 00:45:41;;;;;;;;;;;;;;;12.15;100.00;96079.00;10490137;28;2172;-75
2022/05/26 00:50:45;;;;;;;;;;;;;;;12.07;100.00;96082.28;10478390;28;2357;-75
2022/05/26 00:55:49;;;;;;;;;;;;;;;11.98;100.00;96084.75;10487219;28;2455;-75
2022/05/26 01:00:53;;;;;;;;;;;;;;;11.91;100.00;96073.47;10487541;28;2258;-75
2022/05/26 01:05:56;;;;;;;;;;;;;;;11.78;100.00;96074.81;10505347;28;2171;-75
2022/05/26 01:11:00;;;;;;;;;;;;;;;11.74;100.00;96081.81;10489428;28;2210;-75
2022/05/26 01:16:05;;;;;;;;;;;;;;;11.69;100.00;96081.81;10511418;28;2243;-75
2022/05/26 01:21:17;;;;;;;;;;;;;;;11.62;100.00;96082.09;10483545;28;2172;-76
2022/05/26 01:26:21;;;;;;;;;;;;;;;11.57;100.00;96095.56;10485482;28;2405;-75
2022/05/26 01:31:25;;;;;;;;;;;;;;;11.55;100.00;96097.72;10484426;28;2254;-76
2022/05/26 01:36:29;;;;;;;;;;;;;;;11.44;100.00;96096.13;10485414;28;2226;-75
2022/05/26 01:41:32;;;;;;;;;;;;;;;11.38;100.00;96098.00;10499414;28;2125;-75
2022/05/26 01:46:37;;;;;;;;;;;;;;;11.33;100.00;96100.72;10504543;28;2302;-74
2022/05/26 01:51:41;;;;;;;;;;;;;;;11.29;100.00;96099.63;10473167;28;2438;-75
2022/05/26 01:56:44;;;;;;;;;;;;;;;11.28;100.00;96100.72;10499547;28;2374;-75
2022/05/26 02:01:47;;;;;;;;;;;;;;;11.23;100.00;96111.47;10486670;28;2302;-74
2022/05/26 02:06:51;;;;;;;;;;;;;;;11.19;100.00;96093.44;10503991;28;2346;-75
2022/05/26 02:11:54;;;;;;;;;;;12.10;99.90;;;11.04;100.00;96092.38;10511714;28;2330;-75
2022/05/26 02:16:56;;;;;;;;;;;12.10;99.90;;;11.06;100.00;96074.06;10495687;28;2297;-75
2022/05/26 02:21:59;;;;;;;;;;;12.10;99.90;;;11.11;100.00;96108.25;10480927;28;2278;-75
2022/05/26 02:27:02;;;;;;;;;;;12.10;99.90;;;10.99;100.00;96100.44;10495306;28;2378;-74
2022/05/26 02:32:05;;;;;;;;;;;12.00;99.90;;;10.96;100.00;96103.66;10500971;28;2215;-75
2022/05/26 02:37:07;;;;;;;;;;;12.10;99.90;;;10.89;100.00;96105.00;10486361;28;2384;-76
2022/05/26 02:42:10;;;;;;;;;;;12.00;99.90;;;10.89;100.00;96105.00;10512539;28;2339;-75
2022/05/26 02:47:13;;;;;;;;;;;11.90;99.90;;;10.82;100.00;96099.91;10507729;28;2386;-75
2022/05/26 02:52:17;;;;;;;;;;;11.90;99.90;;;10.72;100.00;96099.88;10488219;28;2385;-75
2022/05/26 02:57:21;;;;;;;;;;;11.80;99.90;;;10.90;100.00;96098.56;10498560;28;2550;-76
2022/05/26 03:02:24;;;;;;;;;;;11.80;99.90;;;10.79;100.00;96101.22;10519875;28;2381;-76
2022/05/26 03:07:27;;;;;;;;;;;11.80;99.90;;;10.79;100.00;96105.78;10510771;28;2425;-75
2022/05/26 03:12:30;;;;;;;;;;;;;;;10.84;100.00;96119.25;10495759;28;2422;-75
2022/05/26 03:17:34;;;;;;;;;;;11.70;99.90;;;10.81;100.00;96117.91;10507575;28;2385;-75
2022/05/26 03:22:39;;;;;;;;;;;11.70;99.90;;;10.81;100.00;96117.91;10508244;28;2331;-76
2022/05/26 03:27:42;;;;;;;;;;;11.80;99.90;;;11.11;100.00;96129.78;10522434;28;2624;-75
2022/05/26 03:32:46;;;;;;;;;;;11.90;99.90;;;11.29;100.00;96134.63;10507145;28;2747;-75
2022/05/26 03:43:09;;;;;;;;;;;12.20;99.90;;;11.42;100.00;96132.47;10493624;28;2318;-76
2022/05/26 03:48:12;;;;;;;;;;;12.30;99.90;;;11.43;100.00;96142.97;10485529;28;2315;-76
2022/05/26 03:53:15;;;;;;;;;;;12.30;99.90;;;11.50;100.00;96148.88;10486793;28;2342;-75
2022/05/26 03:58:18;;;;;;;;;;;12.40;99.90;;;11.51;100.00;96160.47;10506737;28;2283;-76
2022/05/26 04:03:22;;;;;;;;;;;12.40;99.90;;;11.99;100.00;96158.28;10514564;28;2311;-74
2022/05/26 04:08:25;;;;;;;;;;;12.50;99.90;;;12.51;95.98;96178.63;10486773;28;2292;-75
2022/05/26 04:13:27;;;;;;;;;;;13.00;99.90;;;12.93;91.88;96170.88;10487700;28;2339;-76
2022/05/26 04:18:31;;;;;;;;;;;13.30;99.90;;;13.06;91.63;96169.44;10510422;28;2216;-75
2022/05/26 04:23:34;;;;;;;;;;;13.60;99.90;;;13.24;90.50;96182.31;10511914;28;2239;-75
2022/05/26 04:28:37;;;;;;;;;;;13.70;99.90;;;13.53;88.99;96179.66;10489890;28;2220;-74
2022/05/26 04:33:40;;;;;;;;;;;14.00;99.90;;;13.73;88.25;96191.38;10492135;28;2268;-75
2022/05/26 04:38:44;;;;;;;;;;;14.20;99.90;;;13.97;87.55;96197.66;10507682;28;2554;-75
2022/05/26 04:43:52;;;;;;;;;;;14.50;99.90;;;14.48;84.61;96202.59;10501430;28;2437;-75
2022/05/26 04:48:54;;;;;;;;;;;14.90;99.90;;;15.01;81.21;96213.28;10503090;28;2291;-75
2022/05/26 04:53:57;;;;;;;;;;;15.20;99.90;;;14.56;83.82;96209.25;10481822;28;2472;-75
2022/05/26 04:59:00;;;;;;;;;;;15.30;99.90;;;14.22;86.64;96214.72;10493820;28;2292;-76
2022/05/26 05:04:03;;;;;;;;;;;15.10;99.90;;;14.35;86.43;96211.34;10503190;28;2110;-76
2022/05/26 05:09:06;;;;;;;;;;;15.00;99.90;;;14.31;87.18;96213.00;10490421;28;2362;-75
2022/05/26 05:14:09;;;;;;;;;;;15.00;99.90;;;14.42;86.16;96217.22;10505897;28;2359;-75
2022/05/26 05:19:12;;;;;;;;;;;15.10;99.90;;;14.63;85.29;96219.72;10517462;28;2386;-75
2022/05/26 05:24:16;;;;;;;;;;;15.20;99.90;;;14.88;84.25;96224.84;10494702;28;2342;-75
2022/05/26 05:29:19;;;;;;;;;;;15.40;99.90;;;15.01;82.78;96234.94;10481566;28;2323;-76
2022/05/26 05:34:22;;;;;;;;;;;15.60;99.90;;;14.97;82.84;96238.56;10500481;28;2404;-75
2022/05/26 05:39:25;;;;;;;;;;;15.60;99.90;;;15.17;81.50;96242.91;10477599;28;2262;-75
2022/05/26 05:44:28;;;;;;;;;;;15.80;99.90;;;15.43;80.79;96238.72;10476373;28;2317;-75
2022/05/26 05:49:30;;;;;;;;;;;15.90;99.90;;;15.66;77.97;96251.44;10487476;28;2239;-75
2022/05/26 05:54:34;;;;;;;;;;;16.10;99.90;;;16.39;76.53;96247.25;10502340;28;2143;-74
2022/05/26 05:59:36;;;;;;;;;;;16.50;99.90;;;17.04;71.23;96262.59;10505972;28;2266;-76
2022/05/26 06:04:42;;;;;;;;;;;17.20;99.90;;;17.18;69.60;96263.41;10480673;28;2274;-74
2022/05/26 06:09:45;;;;;;;;;;;17.50;99.90;;;17.15;69.76;96271.34;10507453;28;2171;-75
2022/05/26 06:14:49;;;;;;;;;;;17.60;99.90;;;17.02;70.02;96259.38;10482269;28;2267;-73
2022/05/26 06:19:51;;;;;;;;;;;17.60;99.90;;;17.16;69.04;96262.88;10509867;28;2215;-75
2022/05/26 06:24:56;;;;;;;;;;;17.70;99.90;;;17.35;67.07;96267.38;10503842;28;2313;-76
2022/05/26 06:29:59;;;;;;;;;;;17.90;99.90;;;17.54;64.18;96268.06;10498098;28;2170;-76
2022/05/26 06:40:31;;;;;;;;;;;18.00;99.90;;;17.75;63.53;96291.00;10470419;28;2235;-77
2022/05/26 06:45:34;;;;;;;;;;;18.10;99.90;;;17.44;64.16;96288.13;10510360;28;2171;-76
2022/05/26 06:50:37;;;;;;;;;;;18.20;99.90;;;18.09;61.99;96286.94;10484815;28;2278;-77
2022/05/26 06:55:40;;;;;;;;;;;;;;;18.57;59.81;96289.00;10489094;28;2370;-76
2022/05/26 07:00:45;;;;;;;;;;;;;;;19.00;57.43;96291.97;10488947;28;2203;-75
2022/05/26 07:05:49;;;;;;;;;;;;;;;19.63;53.95;96295.38;10490941;28;2133;-76
2022/05/26 07:10:54;;;;;;;;;;;;;;;19.74;52.65;96293.97;10513111;28;2234;-75
2022/05/26 07:16:00;;;;;;;;;;;;;;;20.46;49.98;96295.22;10487871;28;2176;-75
2022/05/26 07:21:07;;;;;;;;;;;;;;;20.99;48.55;96294.78;10496382;28;2275;-76
2022/05/26 07:26:14;;;;;;;;;;;;;;;21.90;43.88;96291.72;10534760;28;2248;-75
2022/05/26 07:31:17;;;;;;;;;;;;;;;20.63;44.31;96294.41;10492916;28;2314;-75
2022/05/26 07:41:41;;;;;;;;;;;;;;;20.86;46.31;96292.22;10498986;28;2291;-76
2022/05/26 07:46:44;;;;;;;;;;;;;;;20.36;46.93;96295.53;10508916;28;2180;-76
2022/05/26 07:51:48;;;;;;;;;;;;;;;19.45;48.30;96295.31;10486111;28;2215;-76
2022/05/26 07:56:51;;;;;;;;;;;;;;;19.38;49.42;96297.69;10482619;28;2255;-77
2022/05/26 08:01:55;;;;;;;;;;;;;;;19.70;50.52;96301.97;10495529;28;2301;-76
2022/05/26 08:06:59;;;;;;;;;;;;;;;19.81;49.59;96297.00;10489969;28;2302;-75
2022/05/26 08:12:02;;;;;;;;;;;;;;;19.84;49.04;96293.63;10507106;28;2262;-75
2022/05/26 08:17:06;;;;;;;;;;;;;;;19.85;50.29;96300.72;10487932;28;2313;-75
2022/05/26 08:22:13;;;;;;;;;;;;;;;20.16;48.42;96291.53;10506579;28;2387;-75
2022/05/26 08:27:16;;;;;;;;;;;;;;;20.30;47.97;96291.38;10487026;28;2264;-75
2022/05/26 08:32:19;;;;;;;;;;;;;;;20.87;44.72;96289.19;10489319;28;2255;-77
2022/05/26 08:37:23;;;;;;;;;;;;;;;21.01;44.50;96273.38;10506564;28;2243;-75
2022/05/26 08:42:27;;;;;;;;;;;;;;;21.50;43.98;96284.75;10505251;28;2326;-75
2022/05/26 08:47:31;;;;;;;;;;;;;;;21.60;45.12;96286.28;10489128;28;2471;-76
2022/05/26 08:52:40;;;;;;;;;;;;;;;21.31;44.23;96287.06;10487533;28;2309;-77
2022/05/26 08:57:48;;;;;;;;;;;;;;;21.07;44.09;96289.59;10483675;28;2255;-76
2022/05/26 09:02:53;;;;;;;;;;;;;;;21.37;45.03;96293.97;10486030;28;2294;-76
2022/05/26 09:13:18;;;;;;;;;;;;;;;20.18;47.08;96297.50;10491889;28;2201;-77
2022/05/26 09:18:21;;;;;;;;;;;;;;;20.14;45.83;96310.16;10486667;28;2157;-77
2022/05/26 09:23:25;;;;;;;;;;;;;;;20.89;44.49;96297.84;10494318;28;2244;-78
2022/05/26 09:28:28;;;;;;;;;;;;;;;20.66;44.25;96300.00;10487008;28;2239;-75
2022/05/26 09:33:33;;;;;;;;;;;;;;;21.12;41.91;96306.63;10504392;28;2196;-76
2022/05/26 09:38:36;;;;;;;;;;;;;;;21.36;43.06;96294.31;10503860;28;2266;-76
2022/05/26 09:43:40;;;;;;;;;;;;;;;21.55;40.74;96303.69;10489185;28;2188;-76
2022/05/26 09:48:43;;;;;;;;;;;;;;;21.47;41.63;96295.53;10501526;28;2121;-74
2022/05/26 09:53:47;;;;;;;;;;;;;;;22.19;41.11;96312.75;10498390;28;2315;-77
2022/05/26 09:58:50;;;;;;;;;;;;;;;22.33;41.75;96300.41;10483279;28;2565;-75
2022/05/26 10:03:53;;;;;;;;;;;;;;;21.76;40.85;96305.66;10501714;28;2188;-75
2022/05/26 10:08:57;;;;;;;;;;;;;;;21.46;41.39;96321.28;10502003;28;2190;-75
2022/05/26 10:14:00;;;;;;;;;;;;;;;20.98;41.70;96315.00;10482602;28;2368;-75
2022/05/26 10:19:06;;;;;;;;;;;;;;;21.30;42.60;96323.75;10500205;28;2175;-74
2022/05/26 10:24:10;;;;;;;;;;;;;;;21.59;41.54;96312.03;10487247;28;2262;-75
2022/05/26 10:29:14;;;;;;;;;;;;;;;21.66;40.14;96303.31;10494040;28;2343;-75
2022/05/26 10:34:18;;;;;;;;;;;;;;;21.49;40.74;96310.47;10480574;28;2302;-75
2022/05/26 10:39:22;;;;;;;;;;;;;;;22.02;38.56;96300.00;10500776;28;2287;-75
2022/05/26 10:44:26;;;;;;;;;;;;;;;23.33;38.47;96305.75;10485067;28;2293;-76
2022/05/26 10:49:30;;;;;;;;;;;;;;;23.40;37.33;96300.50;10485055;28;2183;-75
2022/05/26 10:54:34;;;;;;;;;;;;;;;23.65;37.48;96291.13;10501902;28;2340;-75
2022/05/26 10:59:37;;;;;;;;;;;;;;;24.10;36.51;96292.06;10484143;28;2247;-76
2022/05/26 11:04:41;;;;;;;;;;;;;;;24.25;36.06;96292.16;10489135;28;2334;-75
2022/05/26 11:09:45;;;;;;;;;;;;;;;23.79;34.92;96290.78;10510771;28;2219;-74
2022/05/26 11:20:10;;;;;;;;;;;;;;;22.87;37.24;96283.09;10491696;28;2329;-75
2022/05/26 11:25:14;;;;;;;;;;;;;;;23.02;36.82;96276.94;10507089;28;2274;-76
2022/05/26 11:36:10;;;;;;;;;;;;;;;22.21;37.84;96285.84;10509895;28;2254;-75
2022/05/26 11:41:14;;;;;;;;;;;;;;;21.41;40.49;96286.72;10506799;28;2313;-75
2022/05/26 11:46:17;;;;;;;;;;;;;;;20.65;41.73;96286.69;10506427;28;2177;-76
2022/05/26 11:51:21;;;;;;;;;;;;;;;20.68;42.41;96281.38;10483788;28;2238;-76
2022/05/26 11:56:24;;;;;;;;;;;;;;;21.37;40.81;96268.56;10502987;28;2329;-75
2022/05/26 12:01:27;;;;;;;;;;;;;;;21.57;40.15;96267.81;10490536;28;2351;-75
2022/05/26 12:06:31;;;;;;;;;;;;;;;21.77;39.65;96258.81;10482744;28;2246;-75
2022/05/26 12:11:35;;;;;;;;;;;;;;;21.82;38.69;96252.31;10505446;28;2243;-75
2022/05/26 12:16:39;;;;;;;;;;;;;;;22.32;38.50;96260.44;10487226;28;2124;-76
2022/05/26 12:21:43;;;;;;;;;;;;;;;22.75;37.01;96244.69;10501157;28;2370;-76
2022/05/26 12:26:46;;;;;;;;;;;;;;;22.49;37.72;96226.59;10482508;28;2265;-77
2022/05/26 12:31:50;;;;;;;;;;;;;;;22.92;38.18;96222.59;10486161;28;2054;-75
2022/05/26 12:36:53;;;;;;;;;;;;;;;22.23;38.31;96232.34;10502607;28;2191;-75
2022/05/26 12:41:56;;;;;;;;;;;;;;;21.43;39.36;96235.22;10490532;28;2246;-75
2022/05/26 12:47:16;;;;;;;;;;;;;;;21.94;38.13;96233.22;10487527;28;2247;-76
2022/05/26 12:52:23;;;;;;;;;;;;;;;21.93;37.88;96225.34;10505210;28;2266;-76
2022/05/26 12:57:26;;;;;;;;;;;;;;;21.56;39.75;96227.88;10506433;28;2336;-76
2022/05/26 13:02:31;;;;;;;;;;;;;;;21.67;38.91;96217.34;10490643;28;2298;-74
2022/05/26 13:07:35;;;;;;;;;;;;;;;21.86;39.35;96221.22;10505019;28;2339;-75
2022/05/26 13:12:39;;;;;;;;;;;;;;;22.36;39.59;96205.78;10484836;28;2129;-75
2022/05/26 13:17:43;;;;;;;;;;;;;;;22.16;40.58;96209.41;10500481;28;2184;-75
2022/05/26 13:22:46;;;;;;;;;;;;;;;21.67;41.17;96220.09;10487159;28;2363;-75
2022/05/26 13:27:50;;;;;;;;;;;;;;;21.69;40.55;96220.53;10481863;28;2292;-75
2022/05/26 13:33:11;;;;;;;;;;;;;;;21.54;41.37;96203.59;10504534;28;2373;-75
2022/05/26 13:38:15;;;;;;;;;;;;;;;21.88;40.39;96198.19;10492870;28;2184;-75
2022/05/26 13:43:19;;;;;;;;;;;;;;;22.11;39.88;96208.47;10484884;28;2301;-74
2022/05/26 13:48:23;;;;;;;;;;;;;;;22.44;39.89;96204.88;10499847;28;2183;-74
2022/05/26 13:53:27;;;;;;;;;;;;;;;21.92;40.31;96213.59;10502768;28;2300;-77
2022/05/26 13:58:31;;;;;;;;;;;;;;;21.83;40.69;96197.25;10483824;28;2332;-75
2022/05/26 14:03:35;;;;;;;;;;;;;;;21.90;41.76;96199.47;10482256;28;2240;-76
2022/05/26 14:08:38;;;;;;;;;;;;;;;22.28;40.39;96201.22;10481162;28;2271;-75
2022/05/26 14:13:42;;;;;;;;;;;;;;;22.50;39.72;96192.56;10491611;28;2123;-74
2022/05/26 14:18:46;;;;;;;;;;;;;;;21.83;40.75;96185.53;10484261;28;2256;-75
2022/05/26 14:23:49;;;;;;;;;;;;;;;21.44;43.32;96195.81;10486813;28;2456;-75
2022/05/26 14:28:53;;;;;;;;;;;;;;;21.18;43.76;96195.13;10495653;28;2266;-73
2022/05/26 14:33:57;;;;;;;;;;;;;;;20.95;44.94;96205.56;10497208;28;2333;-75
2022/05/26 14:39:00;;;;;;;;;;;;;;;21.14;44.35;96189.53;10486030;28;2229;-76
2022/05/26 14:44:04;;;;;;;;;;;;;;;21.60;44.70;96185.06;10511139;28;2258;-75
2022/05/26 14:49:08;;;;;;;;;;;;;;;21.71;43.17;96174.53;10506972;28;2199;-75
2022/05/26 14:59:34;;;;;;;;;;;;;;;21.34;42.60;96181.72;10498861;28;2329;-75
2022/05/26 15:04:44;;;;;;;;;;;;;;;21.23;44.01;96192.22;10510996;28;2288;-75
2022/05/26 15:09:48;;;;;;;;;;;;;;;21.27;43.18;96184.97;10484975;28;2233;-74
2022/05/26 15:14:52;;;;;;;;;;;;;;;21.42;42.73;96170.72;10491071;28;2378;-75
2022/05/26 15:19:57;;;;;;;;;;;;;;;21.53;42.98;96168.38;10488948;28;2276;-72
2022/05/26 15:25:00;;;;;;;;;;;;;;;21.67;42.83;96170.84;10487011;28;2268;-74
2022/05/26 15:30:04;;;;;;;;;;;;;;;21.21;43.43;96167.16;10519256;28;2298;-73
2022/05/26 15:35:09;;;;;;;;;;;;;;;21.41;43.71;96160.91;10508212;28;2171;-73
2022/05/26 15:40:12;;;;;;;;;;;;;;;21.58;43.45;96166.25;10510091;28;2207;-73
2022/05/26 15:45:15;;;;;;;;;;;;;;;21.53;42.81;96162.91;10488458;28;2265;-73
2022/05/26 15:50:20;;;;;;;;;;;;;;;21.79;41.86;96168.16;10488398;28;2306;-72
2022/05/26 15:55:24;;;;;;;;;;;;;;;21.39;42.58;96165.94;10506373;28;2329;-72
2022/05/26 16:00:28;;;;;;;;;;;;;;;21.51;42.50;96155.06;10483757;28;2255;-73
2022/05/26 16:05:32;;;;;;;;;;;;;;;21.18;43.30;96162.31;10501660;28;2263;-73
2022/05/26 16:10:35;;;;;;;;;;;;;;;20.92;44.37;96159.75;10486887;28;2279;-72
2022/05/26 16:15:39;;;;;;;;;;;;;;;20.66;45.05;96159.91;10491167;28;2115;-76
2022/05/26 16:20:43;;;;;;;;;;;;;;;20.24;46.07;96157.00;10503653;28;2246;-75
2022/05/26 16:25:47;;;;;;;;;;;;;;;20.38;46.77;96151.31;10484448;28;2268;-74
2022/05/26 16:30:51;;;;;;;;;;;;;;;20.01;46.93;96161.84;10480626;28;2243;-74
2022/05/26 16:41:16;;;;;;;;;;;;;;;19.66;48.76;96164.66;10506206;28;2271;-74
2022/05/26 16:46:21;;;;;;;;;;;;;;;19.53;49.64;96171.03;10497940;28;2379;-75
2022/05/26 16:51:24;;;;;;;;;;;;;;;19.44;50.15;96173.75;10483500;28;2201;-74
2022/05/26 16:56:28;;;;;;;;;;;;;;;19.31;50.55;96185.59;10484213;28;2243;-75
2022/05/26 17:01:31;;;;;;;;;;;;;;;19.22;50.22;96176.63;10481325;28;2188;-75
2022/05/26 17:06:35;;;;;;;;;;;;;;;19.05;51.49;96169.22;10481937;28;2193;-74
2022/05/26 17:11:38;;;;;;;;;;;;;;;18.89;51.92;96179.78;10479058;28;2326;-75
2022/05/26 17:22:04;;;;;;;;;;;;;;;18.86;52.97;96172.22;10503184;28;2262;-74
2022/05/26 17:27:07;;;;;;;;;;;;;;;19.06;52.01;96178.19;10485657;28;2362;-74
2022/05/26 17:32:12;;;;;;;;;;;;;;;18.89;51.66;96171.59;10483729;28;2335;-75
2022/05/26 17:37:16;;;;;;;;;;;;;;;18.94;51.07;96176.09;10483992;28;2311;-75
2022/05/26 17:42:20;;;;;;;;;;;;;;;18.85;51.16;96178.81;10481990;28;2236;-75
2022/05/26 17:47:23;;;;;;;;;;;;;;;18.63;52.87;96170.69;10501612;28;2248;-75
2022/05/26 17:52:27;;;;;;;;;;;;;;;18.53;54.07;96168.25;10479003;28;2213;-76
2022/05/26 17:57:31;;;;;;;;;;;;;;;18.26;55.14;96166.53;10483826;28;2189;-75
2022/05/26 18:02:36;;;;;;;;;;;;;;;18.29;55.24;96174.88;10502871;28;2212;-74
2022/05/26 18:07:41;;;;;;;;;;;;;;;18.17;55.45;96171.13;10485397;28;2273;-74
2022/05/26 18:12:45;;;;;;;;;;;;;;;18.07;56.41;96172.22;10500501;28;2275;-75
2022/05/26 18:17:48;;;;;;;;;;;;;;;17.92;56.06;96167.94;10503664;28;2184;-74
2022/05/26 18:22:52;;;;;;;;;;;;;;;17.84;56.85;96171.41;10508447;28;2349;-74
2022/05/26 18:27:56;;;;;;;;;;;;;;;17.66;57.53;96170.47;10482888;28;2608;-77
2022/05/26 18:33:01;;;;;;;;;;;;;;;17.61;58.28;96170.56;10500722;28;2363;-73
2022/05/26 18:38:08;;;;;;;;;;;;;;;17.39;59.60;96165.13;10498965;28;2147;-71
2022/05/26 18:43:13;;;;;;;;;;;;;;;17.32;60.02;96167.47;10499951;28;2128;-74
2022/05/26 18:48:17;;;;;;;;;;;;;;;17.12;61.60;96169.53;10496442;28;2204;-76
2022/05/26 18:53:21;;;;;;;;;;;;;;;16.88;62.74;96171.69;10483239;28;2189;-74
2022/05/26 18:58:25;;;;;;;;;;;;;;;16.72;63.95;96174.72;10502767;28;2215;-72
2022/05/26 19:03:30;;;;;;;;;;;;;;;16.65;64.08;96184.34;10483584;28;2185;-71
2022/05/26 19:08:33;;;;;;;;;;;;;;;16.43;65.42;96188.56;10493955;28;2251;-74
2022/05/26 19:13:37;;;;;;;;;;;;;;;16.47;66.06;96186.03;10481384;28;2236;-74
2022/05/26 19:18:41;;;;;;;;;;;;;;;16.23;67.14;96193.56;10478975;28;2271;-74
2022/05/26 19:23:44;;;;;;;;;;;;;;;16.12;68.37;96199.16;10506255;28;2198;-74
2022/05/26 19:28:48;;;;;;;;;;;;;;;16.03;68.82;96200.97;10495949;28;2157;-74
2022/05/26 19:33:52;;;;;;;;;;;;;;;15.81;69.97;96214.34;10511113;28;2219;-74
2022/05/26 19:38:56;;;;;;;;;;;;;;;15.69;72.30;96217.50;10508414;28;2166;-73
2022/05/26 19:44:00;;;;;;;;;;;;;;;15.66;72.35;96221.63;10513951;28;2344;-75
2022/05/26 19:49:04;;;;;;;;;;;;;;;15.60;73.30;96225.47;10510470;28;2164;-74
2022/05/26 19:54:07;;;;;;;;;;;;;;;15.52;74.39;96223.41;10478728;28;2205;-74
2022/05/26 19:59:31;;;;;;;;;;;;;;;15.41;75.92;96239.03;10487263;28;2194;-74
2022/05/26 20:04:35;;;;;;;;;;;;;;;15.41;75.70;96243.66;10508441;28;2254;-74
2022/05/26 20:09:39;;;;;;;;;;;;;;;15.35;76.52;96251.03;10488174;28;2142;-74
2022/05/26 20:14:43;;;;;;;;;;;;;;;15.35;76.30;96255.66;10509091;28;2284;-76
2022/05/26 20:19:47;;;;;;;;;;;;;;;15.43;75.55;96257.69;10508093;28;2235;-76
2022/05/26 20:24:50;;;;;;;;;;;;;;;15.30;76.24;96261.13;10486069;28;2327;-73
2022/05/26 20:29:54;;;;;;;;;;;;;;;15.21;77.08;96269.13;10502932;28;2096;-74
2022/05/26 20:34:58;;;;;;;;;;;;;;;15.09;78.48;96263.31;10513308;28;2311;-74
2022/05/26 20:40:03;;;;;;;;;;;;;;;14.96;79.48;96269.44;10503879;28;2297;-76
2022/05/26 20:45:06;;;;;;;;;;;;;;;14.86;80.46;96270.34;10503102;28;2423;-76
2022/05/26 20:50:10;;;;;;;;;;;;;;;14.72;81.76;96272.94;10487451;28;2212;-77
2022/05/26 20:55:13;;;;;;;;;;;;;;;14.75;81.31;96264.22;10500556;28;2248;-73
2022/05/26 21:00:17;;;;;;;;;;;;;;;14.64;81.88;96268.16;10486017;28;2267;-74
2022/05/26 21:05:20;;;;;;;;;;;;;;;14.54;83.36;96273.66;10488028;28;2257;-74
2022/05/26 21:10:24;;;;;;;;;;;;;;;14.53;83.33;96277.47;10500531;28;2280;-74
2022/05/26 21:15:27;;;;;;;;;;;;;;;14.60;82.73;96272.53;10489080;28;2241;-74
2022/05/26 21:20:31;;;;;;;;;;;;;;;14.66;80.70;96273.28;10487123;28;2148;-74
2022/05/26 21:25:35;;;;;;;;;;;;;;;14.54;80.45;96274.47;10517059;28;2321;-74
2022/05/26 21:30:39;;;;;;;;;;;;;;;14.50;81.00;96270.72;10494437;28;2053;-75
2022/05/26 21:35:42;;;;;;;;;;;;;;;14.46;80.95;96267.00;10499711;28;2174;-74
2022/05/26 21:40:48;;;;;;;;;;;;;;;14.35;81.64;96265.44;10481655;28;2247;-74
2022/05/26 21:45:52;;;;;;;;;;;;;;;14.23;82.27;96273.94;10500494;28;2263;-75
2022/05/26 21:50:57;;;;;;;;;;;;;;;14.17;82.70;96269.66;10487798;28;2128;-75
2022/05/26 21:56:00;;;;;;;;;;;;;;;14.12;83.45;96271.59;10489477;28;2147;-74
2022/05/26 22:01:04;;;;;;;;;;;;;;;14.04;83.71;96276.53;10484964;28;2207;-74
2022/05/26 22:11:29;;;;;;;;;;;;;;;13.87;86.00;96275.31;10489930;28;2197;-74
2022/05/26 22:16:32;;;;;;;;;;;;;;;13.74;86.52;96277.59;10483506;28;2145;-73
2022/05/26 22:21:36;;;;;;;;;;;;;;;13.67;88.00;96276.25;10489517;28;2351;-74
2022/05/26 22:26:41;;;;;;;;;;;;;;;13.55;89.22;96282.03;10504193;28;2333;-73
2022/05/26 22:31:45;;;;;;;;;;;;;;;13.51;90.78;96276.38;10501791;28;2314;-73
2022/05/26 22:36:48;;;;;;;;;;;;;;;13.42;91.17;96274.53;10485932;28;2138;-74
2022/05/26 22:41:51;;;;;;;;;;;;;;;13.36;92.52;96272.94;10482204;28;2307;-73
2022/05/26 22:46:56;;;;;;;;;;;14.30;99.90;;;13.41;93.66;96273.72;10512149;28;2318;-74
2022/05/26 22:51:59;;;;;;;;;;;14.40;99.90;;;13.35;92.01;96263.22;10487543;28;2256;-73
2022/05/26 22:57:02;;;;;;;;;;;14.40;99.90;;;13.23;93.17;96272.50;10509839;28;2163;-74
2022/05/26 23:02:06;;;;;;;;;;;;;;;13.28;93.46;96276.25;10495033;28;2300;-74
2022/05/26 23:07:10;;;;;;;;;;;14.20;99.90;;;13.24;94.05;96265.19;10491522;28;2320;-74
2022/05/26 23:12:13;;;;;;;;;;;14.20;99.90;;;13.16;94.65;96265.72;10512007;28;2247;-74
2022/05/26 23:17:16;;;;;;;;;;;14.10;99.90;;;13.15;95.70;96258.72;10491360;28;2280;-74
2022/05/26 23:22:21;;;;;;;;;;;14.10;99.90;;;13.12;94.97;96248.50;10494589;28;2372;-74
2022/05/26 23:27:23;;;;;;;;;;;14.10;99.90;;;13.08;95.93;96252.81;10502860;28;2247;-74
2022/05/26 23:32:27;;;;;;;;;;;14.10;99.90;;;13.05;96.25;96234.50;10489906;28;2320;-73
2022/05/26 23:37:31;;;;;;;;;;;14.10;99.90;;;13.04;97.55;96240.97;10484743;28;2326;-73
2022/05/26 23:47:56;;;;;;;;;;;14.00;99.90;;;12.93;97.29;96232.94;10556443;28;2200;-73
2022/05/26 23:52:59;;;;;;;;;;;;;;;12.95;97.86;96224.56;10500226;28;2217;-74
2022/05/26 23:58:03;;;;;;;;;;;;;;;12.99;97.76;96212.94;10514353;28;2325;-74
